Hoople, ND (58243)

8:53 PM CDT on September 15, 2014 (GMT -0500)
Hoople nd | Change Station
CLOSE
Current Station
Personal Weather Station
Location: Hoople, ND
Elevation: 870 ft
Nearby Weather Stations

Elev 870 ft 48.52 °N, 97.62 °W | Updated 6 minutes ago

Clear
Clear
52.7 °F
Feels Like 52.7 °F
N
1.0
Wind Variable Wind from WSW
Gusts 5.0 mph

Today
High -- | Low -- °F
--% Chance of Precip.
Yesterday
High -- | Low -- °F
Precip. -- in
7:07 AM 7:42 PM
Waning Gibbous, 50% visible
Pressure 30.07 in
Visibility 10.0 miles
Clouds Clear
Dew Point 39 °F
Humidity 61%
Rainfall 0.00 in
Snow Depth Not available.
UV 0 out of 12
Pollen 3.40 out of 12
Air Quality Not available.
Flu Activity Not available.
METAR KGAF 160135Z AUTO 26008KT 10SM CLR 12/05 A3007 RMK AO2

More Conditions Fewer Conditions

Pressure 30.07 in
Visibility 10.0 miles
Clouds Clear
Dew Point 39 °F
Humidity 61%
Rainfall 0.00 in
Snow Depth Not available.
UV 0 out of 12
Pollen 3.40 out of 12
Air Quality Not available.
Flu Activity Not available.
METAR KGAF 160135Z AUTO 26008KT 10SM CLR 12/05 A3007 RMK AO2

More Conditions Fewer Conditions

10-Day Weather Forecast

Almanac

Astronomy

Sep. 15, 2014 Rise Set
Actual Time 7:07 AM CDT 7:42 PM CDT
Civil Twilight 6:35 AM CDT 8:14 PM CDT
Nautical Twilight 5:58 AM CDT 8:51 PM CDT
Astronomical Twilight 5:18 AM CDT 9:30 PM CDT
Moon 11:58 PM CDT (9/15) 2:37 PM CDT (9/15)
Length of Visible Light 13h 38m
Length of Day
12h 35m
Tomorrow will be 3m 30s shorter.
Waning Gibbous, 50% of the Moon is Illuminated
Today
Waning Gibbous
Sep 15
Last Quarter
Sep 24
New
Oct 1
First Quarter
Oct 8
Full

Today's Extremes

State Highs State Lows

Community

WunderPhotos

Upload Photos

1,753,643 photos uploaded!

WunderBlogs® & News

Nearby

Snow Depth

Station Depth Elevation
No new snow has been reported.

Earthquake Activity

City Distance Mag. Time & Date
No recent earthquake activity has been reported nearby.
Minimum magnitude displayed is 2.5.

Coastal Water Temperatures

Place Temperature
No Stations Reporting

Nearby Weather Stations